createdAt,value
2019-04-05T00:00:12.234Z,11.45
2019-04-05T00:02:44.359Z,10.98
2019-04-05T00:05:14.665Z,11.40
2019-04-05T00:07:44.211Z,11.40
2019-04-05T00:10:13.195Z,10.95
2019-04-05T00:12:42.173Z,11.50
2019-04-05T00:15:15.531Z,10.50
2019-04-05T00:17:43.330Z,11.08
2019-04-05T00:20:12.204Z,9.40
2019-04-05T00:22:42.733Z,10.45
2019-04-05T00:25:11.546Z,8.05
2019-04-05T00:27:43.002Z,8.93
2019-04-05T00:30:12.179Z,8.45
2019-04-05T00:32:41.713Z,8.38
2019-04-05T00:35:10.606Z,9.28
2019-04-05T00:37:39.381Z,9.08
2019-04-05T00:40:09.593Z,11.38
2019-04-05T00:42:38.557Z,11.15
2019-04-05T00:45:08.917Z,11.48
2019-04-05T00:47:38.433Z,10.32
2019-04-05T00:50:07.946Z,9.48
2019-04-05T00:52:37.004Z,6.92
2019-04-05T00:55:08.152Z,7.20
2019-04-05T00:57:38.107Z,7.30
2019-04-05T01:00:10.817Z,6.87
2019-04-05T01:02:39.621Z,7.20
2019-04-05T01:05:08.590Z,7.35
2019-04-05T01:07:37.427Z,9.80
2019-04-05T01:10:06.968Z,9.70
2019-04-05T01:12:35.858Z,8.95
2019-04-05T01:15:24.355Z,8.83
2019-04-05T01:17:54.596Z,7.67
2019-04-05T01:20:23.647Z,8.98
2019-04-05T01:22:52.426Z,8.55
2019-04-05T01:25:21.360Z,9.25
2019-04-05T01:27:50.448Z,8.88
2019-04-05T01:30:19.417Z,7.55
2019-04-05T01:32:48.892Z,8.43
2019-04-05T01:35:17.994Z,9.75
2019-04-05T01:37:46.952Z,10.03
2019-04-05T01:40:16.034Z,8.98
2019-04-05T01:42:44.801Z,8.15
2019-04-05T01:45:15.849Z,8.00
2019-04-05T01:47:44.901Z,9.73
2019-04-05T01:50:14.462Z,9.50
2019-04-05T01:52:43.458Z,8.70
2019-04-05T01:55:12.296Z,9.40
2019-04-05T01:57:41.169Z,8.93
2019-04-05T02:00:13.996Z,9.30
2019-04-05T02:02:42.382Z,9.68
2019-04-05T02:05:11.372Z,8.58
2019-04-05T02:07:40.449Z,8.93
2019-04-05T02:10:09.608Z,9.55
2019-04-05T02:12:38.578Z,9.58
2019-04-05T02:15:09.306Z,8.28
2019-04-05T02:17:38.382Z,8.60
2019-04-05T02:20:11.207Z,9.45
2019-04-05T02:22:41.272Z,8.15
2019-04-05T02:25:10.630Z,9.43
2019-04-05T02:27:39.544Z,9.63
2019-04-05T02:30:08.555Z,9.40
2019-04-05T02:32:37.345Z,9.18
2019-04-05T02:35:07.675Z,8.50
2019-04-05T02:37:37.103Z,8.68
2019-04-05T02:40:12.511Z,9.08
2019-04-05T02:42:41.472Z,8.38
2019-04-05T02:45:11.628Z,7.83
2019-04-05T02:47:42.837Z,9.55
2019-04-05T02:50:11.698Z,8.73
2019-04-05T02:52:42.315Z,9.65
2019-04-05T02:55:11.249Z,9.50
2019-04-05T02:57:40.658Z,9.85
2019-04-05T03:00:10.143Z,9.45
2019-04-05T03:02:40.644Z,8.68
2019-04-05T03:05:13.108Z,8.20
2019-04-05T03:07:43.209Z,8.00
2019-04-05T03:10:15.431Z,8.73
2019-04-05T03:12:44.347Z,7.60
2019-04-05T03:15:15.196Z,8.68
2019-04-05T03:17:44.013Z,8.33
2019-04-05T03:20:13.037Z,8.30
2019-04-05T03:22:42.092Z,8.15
2019-04-05T03:25:10.988Z,7.95
2019-04-05T03:27:39.911Z,8.00
2019-04-05T03:30:10.643Z,9.58
2019-04-05T03:32:39.453Z,8.28
2019-04-05T03:35:08.498Z,8.13
2019-04-05T03:37:37.411Z,7.70
2019-04-05T03:40:07.853Z,9.48
2019-04-05T03:42:36.878Z,9.78
2019-04-05T03:45:07.452Z,8.05
2019-04-05T03:47:36.371Z,8.65
2019-04-05T03:50:06.895Z,8.50
2019-04-05T03:52:35.953Z,7.95
2019-04-05T03:55:05.638Z,8.35
2019-04-05T03:57:34.689Z,7.00
2019-04-05T04:00:04.209Z,7.35
2019-04-05T04:02:33.129Z,7.92
2019-04-05T04:05:03.881Z,8.23
2019-04-05T04:07:32.698Z,8.25
2019-04-05T04:10:03.258Z,7.33
2019-04-05T04:12:32.218Z,7.90
2019-04-05T04:15:02.799Z,7.87
2019-04-05T04:17:31.638Z,8.65
2019-04-05T04:20:01.652Z,8.60
2019-04-05T04:22:32.345Z,7.72
2019-04-05T04:25:01.833Z,8.88
2019-04-05T04:27:31.518Z,8.38
2019-04-05T04:30:01.395Z,8.40
2019-04-05T04:32:30.512Z,8.15
2019-04-05T04:34:59.446Z,7.37
2019-04-05T04:37:28.463Z,7.55
2019-04-05T04:39:57.499Z,8.65
2019-04-05T04:42:28.069Z,7.45
2019-04-05T04:45:10.997Z,7.95
2019-04-05T04:47:30.288Z,9.13
2019-04-05T04:50:00.659Z,8.00
2019-04-05T04:52:32.350Z,8.93
2019-04-05T04:55:02.921Z,7.55
2019-04-05T04:57:32.669Z,8.25
2019-04-05T05:00:01.904Z,7.90
2019-04-05T05:02:32.224Z,7.42
2019-04-05T05:05:01.294Z,31.70
2019-04-05T05:07:30.197Z,13.08
2019-04-05T05:09:59.096Z,8.43
2019-04-05T05:12:30.172Z,7.83
2019-04-05T05:14:59.176Z,8.60
2019-04-05T05:17:37.952Z,9.15
2019-04-05T05:19:58.743Z,8.40
2019-04-05T05:22:27.614Z,8.88
2019-04-05T05:24:56.712Z,8.05
2019-04-05T05:27:30.157Z,9.05
2019-04-05T05:29:59.080Z,7.28
2019-04-05T05:32:28.877Z,8.53
2019-04-05T05:35:02.150Z,9.10
2019-04-05T05:37:28.458Z,9.28
2019-04-05T05:39:57.220Z,8.83
2019-04-05T05:42:26.112Z,7.95
2019-04-05T05:44:55.044Z,9.05
2019-04-05T05:47:24.197Z,9.15
2019-04-05T05:49:53.218Z,11.30
2019-04-05T05:52:22.429Z,10.72
2019-04-05T05:54:54.913Z,9.85
2019-04-05T05:57:24.061Z,10.82
2019-04-05T05:59:52.889Z,10.32
2019-04-05T06:02:23.514Z,11.83
2019-04-05T06:04:52.466Z,12.00
2019-04-05T06:07:21.452Z,10.43
2019-04-05T06:09:50.530Z,9.15
2019-04-05T06:12:20.899Z,9.50
2019-04-05T06:14:49.865Z,11.30
2019-04-05T06:17:19.071Z,11.48
2019-04-05T06:19:48.015Z,11.20
2019-04-05T06:22:17.143Z,12.07
2019-04-05T06:24:46.197Z,11.38
2019-04-05T06:27:17.907Z,10.93
2019-04-05T06:29:46.990Z,9.50
2019-04-05T06:32:16.036Z,11.57
2019-04-05T06:34:45.453Z,10.95
2019-04-05T06:37:14.592Z,11.12
2019-04-05T06:39:43.559Z,11.18
2019-04-05T06:42:14.315Z,10.93
2019-04-05T06:44:43.324Z,9.93
2019-04-05T06:47:14.024Z,10.80
2019-04-05T06:49:42.941Z,11.20
2019-04-05T06:52:12.045Z,12.73
2019-04-05T06:54:41.424Z,12.30
2019-04-05T06:57:10.513Z,12.80
2019-04-05T06:59:39.500Z,10.78
2019-04-05T07:02:09.094Z,10.98
2019-04-05T07:04:38.017Z,11.25
2019-04-05T07:07:07.136Z,11.50
2019-04-05T07:09:36.014Z,14.23
2019-04-05T07:12:05.857Z,12.58
2019-04-05T07:14:34.776Z,12.25
2019-04-05T07:17:03.813Z,12.68
2019-04-05T07:19:33.802Z,9.90
2019-04-05T07:22:03.418Z,11.18
2019-04-05T07:24:32.324Z,10.63
2019-04-05T07:27:03.509Z,11.12
2019-04-05T07:29:33.146Z,13.03
2019-04-05T07:32:03.088Z,12.53
2019-04-05T07:34:33.672Z,11.95
2019-04-05T07:37:02.818Z,11.55
2019-04-05T07:39:31.509Z,10.23
2019-04-05T07:42:00.487Z,11.30
2019-04-05T07:44:29.587Z,11.40
2019-04-05T07:47:00.178Z,10.65
2019-04-05T07:49:29.178Z,10.93
2019-04-05T07:51:58.014Z,11.55
2019-04-05T07:54:27.789Z,10.20
2019-04-05T07:56:59.552Z,10.98
2019-04-05T07:59:28.843Z,15.40
2019-04-05T08:01:58.070Z,14.07
2019-04-05T08:04:27.037Z,13.43
2019-04-05T08:06:58.666Z,15.60
2019-04-05T08:09:27.661Z,12.40
2019-04-05T08:11:56.531Z,23.60
2019-04-05T08:14:27.186Z,24.57
2019-04-05T08:17:00.667Z,10.28
2019-04-05T08:19:30.460Z,10.50
2019-04-05T08:21:59.654Z,10.95
2019-04-05T08:24:29.802Z,11.28
2019-04-05T08:26:58.691Z,9.65
2019-04-05T08:29:27.185Z,9.33
2019-04-05T08:31:55.823Z,9.60
2019-04-05T08:34:24.256Z,8.03
2019-04-05T08:36:52.695Z,8.63
2019-04-05T08:39:21.269Z,8.58
2019-04-05T08:41:49.771Z,8.50
2019-04-05T08:44:18.225Z,8.03
2019-04-05T08:46:47.579Z,14.20
2019-04-05T08:49:16.070Z,9.33
2019-04-05T08:51:44.523Z,9.40
2019-04-05T08:54:12.982Z,12.07
2019-04-05T08:56:41.413Z,9.35
2019-04-05T08:59:09.931Z,7.65
2019-04-05T09:01:38.350Z,8.15
2019-04-05T09:04:06.812Z,8.65
2019-04-05T09:06:35.243Z,8.75
2019-04-05T09:09:05.811Z,7.20
2019-04-05T09:11:34.304Z,8.43
2019-04-05T09:14:02.758Z,9.85
2019-04-05T09:16:31.178Z,8.95
2019-04-05T09:18:59.632Z,7.40
2019-04-05T09:21:28.058Z,8.65
2019-04-05T09:23:59.094Z,7.67
2019-04-05T09:26:26.634Z,8.78
2019-04-05T09:28:55.629Z,8.28
2019-04-05T09:31:24.468Z,8.88
2019-04-05T09:33:53.814Z,7.92
2019-04-05T09:36:23.554Z,8.23
2019-04-05T09:38:52.536Z,9.13
2019-04-05T09:41:21.431Z,7.50
2019-04-05T09:43:50.406Z,8.35
2019-04-05T09:46:20.308Z,8.93
2019-04-05T09:48:51.864Z,9.53
2019-04-05T09:51:20.912Z,9.23
2019-04-05T09:53:50.057Z,9.08
2019-04-05T09:56:20.047Z,8.53
2019-04-05T09:58:50.760Z,10.43
2019-04-05T10:01:19.800Z,9.08
2019-04-05T10:03:48.735Z,8.48
2019-04-05T10:06:17.681Z,8.10
2019-04-05T10:08:46.672Z,10.53
2019-04-05T10:11:15.763Z,10.40
2019-04-05T10:13:44.796Z,9.83
2019-04-05T10:16:13.748Z,11.28
2019-04-05T10:18:42.747Z,9.90
2019-04-05T10:21:11.725Z,9.53
2019-04-05T10:23:41.348Z,9.95
2019-04-05T10:26:10.397Z,8.25
2019-04-05T10:28:39.576Z,9.13
2019-04-05T10:31:09.977Z,8.43
2019-04-05T10:33:39.786Z,8.40
2019-04-05T10:36:09.212Z,9.08
2019-04-05T10:38:38.067Z,9.48
2019-04-05T10:41:07.102Z,9.55
2019-04-05T10:43:36.223Z,9.53
2019-04-05T10:46:05.793Z,9.83
2019-04-05T10:48:36.379Z,8.60
2019-04-05T10:51:05.358Z,10.05
2019-04-05T10:53:34.558Z,10.10
2019-04-05T10:56:03.642Z,11.08
2019-04-05T10:58:32.743Z,10.58
2019-04-05T11:01:02.366Z,9.88
2019-04-05T11:03:31.920Z,10.25
2019-04-05T11:06:00.986Z,11.22
2019-04-05T11:08:30.157Z,9.45
2019-04-05T11:10:59.077Z,12.35
2019-04-05T11:13:30.508Z,10.28
2019-04-05T11:15:59.346Z,10.88
2019-04-05T11:18:28.222Z,11.63
2019-04-05T11:20:56.991Z,10.93
2019-04-05T11:23:26.143Z,12.35
2019-04-05T11:25:55.224Z,11.80
2019-04-05T11:28:24.620Z,9.70
2019-04-05T11:30:53.641Z,12.43
2019-04-05T11:33:22.486Z,10.50
2019-04-05T11:35:51.538Z,16.02
2019-04-05T11:38:20.649Z,12.00
2019-04-05T11:40:51.292Z,10.48
2019-04-05T11:43:21.705Z,10.93
2019-04-05T11:45:51.790Z,12.30
2019-04-05T11:48:21.222Z,11.20
2019-04-05T11:50:50.335Z,11.05
2019-04-05T11:53:22.129Z,12.33
2019-04-05T11:55:51.829Z,10.95
2019-04-05T11:58:20.798Z,18.05
2019-04-05T12:00:55.748Z,14.47
2019-04-05T12:03:30.168Z,12.45
2019-04-05T12:05:59.041Z,13.22
2019-04-05T12:08:27.857Z,13.58
2019-04-05T12:10:58.392Z,13.18
2019-04-05T12:13:27.111Z,13.35
2019-04-05T12:15:58.149Z,12.50
2019-04-05T12:18:26.750Z,13.40
2019-04-05T12:21:00.312Z,13.22
2019-04-05T12:23:26.411Z,13.50
2019-04-05T12:25:55.539Z,13.60
2019-04-05T12:28:24.564Z,13.13
2019-04-05T12:30:53.672Z,12.80
2019-04-05T12:33:23.984Z,12.73
2019-04-05T12:35:56.276Z,14.47
2019-04-05T12:38:33.364Z,13.93
2019-04-05T12:41:03.917Z,12.37
2019-04-05T12:43:35.120Z,14.03
2019-04-05T12:46:23.462Z,12.23
2019-04-05T12:48:52.838Z,14.33
2019-04-05T12:51:22.494Z,13.78
2019-04-05T12:53:51.556Z,15.48
2019-04-05T12:56:20.637Z,14.35
2019-04-05T12:58:49.717Z,28.10
2019-04-05T13:01:19.584Z,16.15
2019-04-05T13:03:51.364Z,13.93
2019-04-05T13:06:27.458Z,14.73
2019-04-05T13:08:56.438Z,15.68
2019-04-05T13:11:26.795Z,15.20
2019-04-05T13:13:56.343Z,14.78
2019-04-05T13:16:26.150Z,14.95
2019-04-05T13:18:55.245Z,14.43
2019-04-05T13:21:27.608Z,13.90
2019-04-05T13:23:54.826Z,13.30
2019-04-05T13:26:26.304Z,14.53
2019-04-05T13:28:54.873Z,14.43
2019-04-05T13:31:23.980Z,13.15
2019-04-05T13:33:55.214Z,14.87
2019-04-05T13:36:23.394Z,15.20
2019-04-05T13:38:55.053Z,13.98
2019-04-05T13:41:24.743Z,14.28
2019-04-05T13:43:53.861Z,14.68
2019-04-05T13:46:25.977Z,14.28
2019-04-05T13:48:55.679Z,15.18
2019-04-05T13:51:28.101Z,15.10
2019-04-05T13:53:55.457Z,15.72
2019-04-05T13:56:24.588Z,15.75
2019-04-05T13:58:55.227Z,15.90
2019-04-05T14:01:24.149Z,15.30
2019-04-05T14:03:52.986Z,16.20
2019-04-05T14:06:22.146Z,15.70
2019-04-05T14:08:52.715Z,15.70
2019-04-05T14:11:21.822Z,15.40
2019-04-05T14:13:52.321Z,15.50
2019-04-05T14:16:23.067Z,15.72
2019-04-05T14:18:52.016Z,16.60
2019-04-05T14:21:22.466Z,16.02
2019-04-05T14:23:53.281Z,15.70
2019-04-05T14:26:22.225Z,18.10
2019-04-05T14:28:52.984Z,15.48
2019-04-05T14:31:22.025Z,17.52
2019-04-05T14:33:53.988Z,16.97
2019-04-05T14:36:23.527Z,17.52
2019-04-05T14:38:59.606Z,16.07
2019-04-05T14:41:29.469Z,17.25
2019-04-05T14:43:58.408Z,17.67
2019-04-05T14:46:29.169Z,17.00
2019-04-05T14:48:58.530Z,17.77
2019-04-05T14:51:29.381Z,22.70
2019-04-05T14:54:01.430Z,17.30
2019-04-05T14:56:29.332Z,16.37
2019-04-05T14:58:59.963Z,18.48
2019-04-05T15:01:29.176Z,17.42
2019-04-05T15:03:58.076Z,18.00
2019-04-05T15:06:29.530Z,17.10
2019-04-05T15:08:58.490Z,22.80
2019-04-05T15:11:29.418Z,19.70
2019-04-05T15:13:58.087Z,32.10
2019-04-05T15:16:29.429Z,17.10
2019-04-05T15:18:58.410Z,17.20
2019-04-05T15:21:27.400Z,23.12
2019-04-05T15:23:58.375Z,18.90
2019-04-05T15:26:27.283Z,16.82
2019-04-05T15:28:56.192Z,23.35
2019-04-05T15:31:28.375Z,17.50
2019-04-05T15:34:02.342Z,19.45
2019-04-05T15:36:35.715Z,16.90
2019-04-05T15:39:08.294Z,22.73
2019-04-05T15:41:37.456Z,21.65
2019-04-05T15:44:06.509Z,19.25
2019-04-05T15:46:38.623Z,17.20
2019-04-05T15:49:09.236Z,18.17
2019-04-05T15:51:39.227Z,15.88
2019-04-05T15:54:08.280Z,17.23
2019-04-05T15:56:39.184Z,17.80
2019-04-05T15:59:09.525Z,22.80
2019-04-05T16:01:40.257Z,27.17
2019-04-05T16:04:10.890Z,27.93
2019-04-05T16:06:43.548Z,28.85
2019-04-05T16:09:15.828Z,29.70
2019-04-05T16:11:56.581Z,30.60
2019-04-05T16:14:28.472Z,29.57
2019-04-05T16:16:59.483Z,32.17
2019-04-05T16:19:30.069Z,33.10
2019-04-05T16:21:59.161Z,31.02
2019-04-05T16:24:28.226Z,33.42
2019-04-05T16:26:59.706Z,35.75
2019-04-05T16:29:28.652Z,30.43
2019-04-05T16:32:00.432Z,36.35
2019-04-05T16:34:48.715Z,35.45
2019-04-05T16:37:17.613Z,34.08
2019-04-05T16:39:46.637Z,32.78
2019-04-05T16:42:15.723Z,40.90
2019-04-05T16:44:44.678Z,39.45
2019-04-05T16:47:13.642Z,51.95
2019-04-05T16:49:42.817Z,39.18
2019-04-05T16:52:11.907Z,37.25
2019-04-05T16:54:40.845Z,38.60
2019-04-05T16:57:09.833Z,37.53
2019-04-05T16:59:38.777Z,67.08
2019-04-05T17:02:08.126Z,53.08
2019-04-05T17:04:36.987Z,38.38
2019-04-05T17:07:06.154Z,40.15
2019-04-05T17:09:35.128Z,38.65
2019-04-05T17:12:05.249Z,41.42
2019-04-05T17:14:38.974Z,40.50
2019-04-05T17:17:08.040Z,43.35
2019-04-05T17:19:38.280Z,47.35
2019-04-05T17:22:07.327Z,48.25
2019-04-05T17:24:36.251Z,49.27
2019-04-05T17:27:05.196Z,47.75
2019-04-05T17:29:34.059Z,48.73
2019-04-05T17:32:02.958Z,48.58
2019-04-05T17:34:32.002Z,50.33
2019-04-05T17:37:01.134Z,48.60
2019-04-05T17:39:30.195Z,50.88
2019-04-05T17:41:59.262Z,49.98
2019-04-05T17:44:28.322Z,50.40
2019-04-05T17:46:58.801Z,54.30
2019-04-05T17:49:28.742Z,50.38
2019-04-05T17:52:00.616Z,50.95
2019-04-05T17:54:29.892Z,54.38
2019-04-05T17:56:58.945Z,51.63
2019-04-05T17:59:28.220Z,56.23
2019-04-05T18:01:58.100Z,61.98
2019-04-05T18:04:27.183Z,57.08
2019-04-05T18:06:56.314Z,55.38
2019-04-05T18:09:27.317Z,52.73
2019-04-05T18:11:56.118Z,56.13
2019-04-05T18:14:26.447Z,54.67
2019-04-05T18:16:57.098Z,54.75
2019-04-05T18:19:26.019Z,54.67
2019-04-05T18:21:55.232Z,57.03
2019-04-05T18:24:24.397Z,55.48
2019-04-05T18:26:53.588Z,55.50
2019-04-05T18:29:22.586Z,56.55
2019-04-05T18:31:52.086Z,56.65
2019-04-05T18:34:20.840Z,55.58
2019-04-05T18:36:50.062Z,52.93
2019-04-05T18:39:19.309Z,52.95
2019-04-05T18:41:49.855Z,52.43
2019-04-05T18:44:18.812Z,53.28
2019-04-05T18:46:48.705Z,53.87
2019-04-05T18:49:19.445Z,54.85
2019-04-05T18:51:48.590Z,55.65
2019-04-05T18:54:19.130Z,54.20
2019-04-05T18:56:48.382Z,52.73
2019-04-05T18:59:17.433Z,57.45
2019-04-05T19:01:46.436Z,56.33
2019-04-05T19:04:15.539Z,54.15
2019-04-05T19:06:45.788Z,52.85
2019-04-05T19:09:14.765Z,55.92
2019-04-05T19:11:43.887Z,55.05
2019-04-05T19:14:14.748Z,52.65
2019-04-05T19:16:43.817Z,56.60
2019-04-05T19:19:12.946Z,54.67
2019-04-05T19:21:43.521Z,56.50
2019-04-05T19:24:13.259Z,51.77
2019-04-05T19:26:42.293Z,54.08
2019-04-05T19:29:12.653Z,55.23
2019-04-05T19:49:21.950Z,64.82
2019-04-05T19:51:51.064Z,60.75
2019-04-05T19:54:21.616Z,54.00
2019-04-05T19:56:50.690Z,59.50
2019-04-05T19:59:19.775Z,57.10
2019-04-05T20:01:51.356Z,56.10
2019-04-05T20:04:22.217Z,54.85
2019-04-05T20:06:58.328Z,54.25
2019-04-05T20:09:23.824Z,57.55
2019-04-05T20:11:52.934Z,56.60
2019-04-05T20:14:33.594Z,58.28
2019-04-05T20:17:02.289Z,55.65
2019-04-05T20:19:31.306Z,56.90
2019-04-05T20:22:00.393Z,57.05
2019-04-05T20:24:31.651Z,59.27
2019-04-05T20:27:00.366Z,59.93
2019-04-05T20:29:29.322Z,58.65
2019-04-05T20:32:04.112Z,58.10
2019-04-05T20:34:36.442Z,61.68
2019-04-05T20:37:05.467Z,55.30
2019-04-05T20:39:35.176Z,57.70
2019-04-05T20:42:04.213Z,56.28
2019-04-05T20:44:33.245Z,53.42
2019-04-05T20:47:03.648Z,57.23
2019-04-05T20:49:32.756Z,58.25
2019-04-05T20:52:01.738Z,57.95
2019-04-05T20:54:32.550Z,58.02
2019-04-05T20:57:02.193Z,61.68
2019-04-05T20:59:31.215Z,56.40
2019-04-05T21:02:01.877Z,56.18
2019-04-05T21:04:30.863Z,56.20
2019-04-05T21:06:59.843Z,55.90
2019-04-05T21:09:30.405Z,58.00
2019-04-05T21:11:59.309Z,57.38
2019-04-05T21:14:28.155Z,58.48
2019-04-05T21:16:57.382Z,57.93
2019-04-05T21:19:26.476Z,59.25
2019-04-05T21:21:55.463Z,59.58
2019-04-05T21:24:35.542Z,57.00
2019-04-05T21:26:55.449Z,56.23
2019-04-05T21:29:24.375Z,57.98
2019-04-05T21:31:55.594Z,58.45
2019-04-05T21:34:24.537Z,56.55
2019-04-05T21:36:54.332Z,59.80
2019-04-05T21:39:23.355Z,60.33
2019-04-05T21:41:52.331Z,57.17
2019-04-05T21:44:23.183Z,56.80
2019-04-05T21:46:52.033Z,59.45
2019-04-05T21:49:22.449Z,56.77
2019-04-05T21:51:51.298Z,57.58
2019-04-05T21:54:20.473Z,58.58
2019-04-05T21:56:49.832Z,57.98
2019-04-05T21:59:18.826Z,59.60
2019-04-05T22:01:49.664Z,57.13
2019-04-05T22:04:19.953Z,58.08
2019-04-05T22:06:50.115Z,58.58
2019-04-05T22:09:38.323Z,56.28
2019-04-05T22:12:07.429Z,57.53
2019-04-05T22:14:36.462Z,58.25
2019-04-05T22:17:05.598Z,57.62
2019-04-05T22:19:34.690Z,60.48
2019-04-05T22:22:03.614Z,57.40
2019-04-05T22:24:32.658Z,58.85
2019-04-05T22:27:01.667Z,62.35
2019-04-05T22:29:31.811Z,60.35
2019-04-05T22:32:01.412Z,60.00
2019-04-05T22:34:30.477Z,58.33
2019-04-05T22:37:00.223Z,57.27
2019-04-05T22:39:33.646Z,58.63
2019-04-05T22:42:02.666Z,59.18
2019-04-05T22:44:39.937Z,58.52
2019-04-05T22:47:03.826Z,57.15
2019-04-05T22:49:36.240Z,57.83
2019-04-05T22:52:07.124Z,58.00
2019-04-05T22:54:36.181Z,52.90
2019-04-05T22:57:05.070Z,59.55
2019-04-05T22:59:34.000Z,58.25
2019-04-05T23:02:02.854Z,58.73
2019-04-05T23:04:32.283Z,58.33
2019-04-05T23:07:01.311Z,57.60
2019-04-05T23:09:30.391Z,58.00
2019-04-05T23:11:59.476Z,57.53
2019-04-05T23:14:29.997Z,56.18
2019-04-05T23:17:00.052Z,59.53
2019-04-05T23:19:29.140Z,58.28
2019-04-05T23:21:58.069Z,58.90
2019-04-05T23:24:27.045Z,56.63
2019-04-05T23:26:56.006Z,59.15
2019-04-05T23:29:25.009Z,55.83
2019-04-05T23:31:53.954Z,58.15
2019-04-05T23:34:22.915Z,56.83
2019-04-05T23:36:52.964Z,55.92
2019-04-05T23:39:21.585Z,55.50
2019-04-05T23:41:50.792Z,53.80
2019-04-05T23:44:19.755Z,53.70
2019-04-05T23:46:49.761Z,55.33
2019-04-05T23:49:21.469Z,56.53
2019-04-05T23:51:51.986Z,54.58
2019-04-05T23:54:20.958Z,53.73
2019-04-05T23:56:49.981Z,53.70
2019-04-05T23:59:18.978Z,55.23
